createdAt,value
2019-04-22T00:04:40.303Z,16.86
2019-04-22T00:10:03.075Z,16.82
2019-04-22T00:15:02.305Z,16.71
2019-04-22T00:20:11.640Z,16.62
2019-04-22T00:25:20.155Z,16.64
2019-04-22T00:30:22.444Z,16.59
2019-04-22T00:35:29.265Z,16.56
2019-04-22T00:40:42.762Z,16.50
2019-04-22T00:45:44.559Z,16.53
2019-04-22T00:51:01.695Z,16.46
2019-04-22T00:56:07.241Z,16.43
2019-04-22T01:01:19.150Z,16.36
2019-04-22T01:06:21.549Z,16.29
2019-04-22T01:11:48.054Z,16.26
2019-04-22T01:16:46.078Z,16.22
2019-04-22T01:21:46.779Z,16.14
2019-04-22T01:26:43.497Z,16.07
2019-04-22T01:31:43.832Z,15.91
2019-04-22T01:37:03.532Z,15.77
2019-04-22T01:42:39.809Z,15.75
2019-04-22T01:47:43.728Z,15.69
2019-04-22T01:57:53.692Z,15.47
2019-04-22T02:03:07.333Z,15.36
2019-04-22T02:08:19.827Z,15.23
2019-04-22T02:13:21.862Z,15.15
2019-04-22T02:18:31.569Z,15.07
2019-04-22T02:34:09.292Z,15.07
2019-04-22T02:59:28.810Z,14.81
2019-04-22T03:04:32.318Z,14.73
2019-04-22T03:09:54.261Z,14.75
2019-04-22T03:20:02.318Z,14.57
2019-04-22T03:35:50.043Z,14.51
2019-04-22T03:41:03.695Z,14.45
2019-04-22T03:45:52.994Z,14.34
2019-04-22T03:51:22.266Z,14.23
2019-04-22T03:56:37.398Z,14.23
2019-04-22T04:01:30.529Z,14.16
2019-04-22T04:06:40.068Z,14.11
2019-04-22T04:11:55.746Z,14.07
2019-04-22T04:16:47.675Z,14.03
2019-04-22T04:21:53.534Z,13.90
2019-04-22T04:32:18.749Z,13.72
2019-04-22T04:47:39.064Z,13.72
2019-04-22T05:02:56.252Z,13.63
2019-04-22T05:13:01.737Z,13.64
2019-04-22T05:18:06.556Z,13.64
2019-04-22T05:23:11.987Z,13.57
2019-04-22T05:28:15.207Z,13.56
2019-04-22T05:33:21.679Z,13.65
2019-04-22T05:38:33.410Z,13.62
2019-04-22T05:43:34.361Z,13.58
2019-04-22T05:53:57.531Z,13.72
2019-04-22T06:04:11.389Z,13.74
2019-04-22T06:14:24.767Z,13.98
2019-04-22T06:19:33.252Z,14.04
2019-04-22T06:24:43.051Z,14.15
2019-04-22T06:29:47.648Z,14.28
2019-04-22T06:35:15.177Z,14.45
2019-04-22T06:40:11.016Z,14.52
2019-04-22T06:45:18.883Z,14.64
2019-04-22T06:50:23.043Z,14.69
2019-04-22T07:00:38.377Z,14.90
2019-04-22T07:05:42.865Z,15.02
2019-04-22T07:10:49.152Z,15.17
2019-04-22T07:21:01.239Z,15.37
2019-04-22T07:26:08.732Z,15.62
2019-04-22T07:31:16.252Z,15.99
2019-04-22T07:41:31.766Z,16.42
2019-04-22T07:46:43.437Z,16.52
2019-04-22T07:51:43.891Z,16.66
2019-04-22T07:57:07.285Z,16.91
2019-04-22T08:02:04.462Z,16.94
2019-04-22T08:07:26.026Z,17.13
2019-04-22T08:12:11.701Z,17.21
2019-04-22T08:17:45.057Z,17.37
2019-04-22T08:22:22.944Z,17.55
2019-04-22T08:27:30.187Z,17.51
2019-04-22T08:32:44.146Z,17.58
2019-04-22T08:37:51.101Z,17.68
2019-04-22T08:47:55.326Z,18.04
2019-04-22T08:53:05.832Z,18.19
2019-04-22T08:58:25.107Z,18.43
2019-04-22T09:03:10.950Z,18.45
2019-04-22T09:08:19.317Z,18.44
2019-04-22T09:13:22.201Z,18.64
2019-04-22T09:18:36.596Z,18.65
2019-04-22T09:23:38.449Z,18.68
2019-04-22T09:28:44.052Z,18.84
2019-04-22T09:33:44.040Z,19.02
2019-04-22T09:38:46.915Z,19.13
2019-04-22T09:43:59.085Z,19.13
2019-04-22T09:49:12.247Z,19.40
2019-04-22T09:54:13.942Z,19.51
2019-04-22T09:59:20.659Z,19.69
2019-04-22T10:04:25.398Z,19.73
2019-04-22T10:09:53.169Z,19.94
2019-04-22T10:14:45.104Z,20.09
2019-04-22T10:19:49.322Z,20.26
2019-04-22T10:25:01.706Z,20.31
2019-04-22T10:35:12.322Z,20.49
2019-04-22T10:40:19.649Z,20.69
2019-04-22T10:45:26.376Z,21.10
2019-04-22T10:50:43.154Z,21.48
2019-04-22T10:55:51.048Z,22.06
2019-04-22T11:00:56.349Z,21.57
2019-04-22T11:06:03.355Z,21.77
2019-04-22T11:11:21.582Z,22.63
2019-04-22T11:16:17.286Z,22.65
2019-04-22T11:21:23.323Z,22.55
2019-04-22T11:26:30.193Z,22.69
2019-04-22T11:31:38.687Z,22.61
2019-04-22T11:36:47.056Z,22.66
2019-04-22T11:41:53.944Z,22.34
2019-04-22T11:47:01.589Z,22.89
2019-04-22T11:52:10.456Z,22.66
2019-04-22T11:57:15.221Z,23.08
2019-04-22T12:02:23.378Z,23.97
2019-04-22T12:07:32.983Z,23.82
2019-04-22T12:12:39.604Z,23.82
2019-04-22T12:17:46.808Z,23.57
2019-04-22T12:22:53.364Z,23.70
2019-04-22T12:27:59.199Z,23.92
2019-04-22T12:33:09.281Z,24.65
2019-04-22T12:38:13.126Z,24.71
2019-04-22T12:43:22.199Z,24.85
2019-04-22T12:48:28.294Z,24.85
2019-04-22T12:53:34.033Z,24.72
2019-04-22T12:58:39.190Z,25.20
2019-04-22T13:03:44.750Z,25.03
2019-04-22T13:08:49.948Z,25.37
2019-04-22T13:13:54.961Z,25.60
2019-04-22T13:19:05.628Z,25.70
2019-04-22T13:24:07.149Z,26.10
2019-04-22T13:29:12.898Z,25.80
2019-04-22T13:34:26.235Z,25.65
2019-04-22T13:39:25.213Z,25.66
2019-04-22T13:44:31.445Z,25.56
2019-04-22T13:50:13.593Z,25.27
2019-04-22T13:55:05.700Z,24.89
2019-04-22T13:59:57.874Z,24.63
2019-04-22T14:04:59.142Z,24.55
2019-04-22T14:10:08.684Z,24.54
2019-04-22T14:15:20.154Z,24.38
2019-04-22T14:20:29.463Z,24.30
2019-04-22T14:25:36.862Z,23.87
2019-04-22T14:30:42.588Z,24.14
2019-04-22T14:35:48.234Z,23.94
2019-04-22T14:40:54.429Z,24.31
2019-04-22T14:46:32.037Z,23.81
2019-04-22T14:51:26.089Z,23.58
2019-04-22T14:56:18.161Z,23.27
2019-04-22T15:01:24.617Z,22.80
2019-04-22T15:06:31.840Z,21.95
2019-04-22T15:11:52.835Z,21.27
2019-04-22T15:17:02.629Z,21.09
2019-04-22T15:22:08.471Z,21.18
2019-04-22T15:27:14.166Z,21.22
2019-04-22T15:32:21.203Z,21.26
2019-04-22T15:37:28.726Z,21.31
2019-04-22T15:42:38.301Z,21.21
2019-04-22T15:47:42.270Z,20.88
2019-04-22T15:52:51.293Z,20.59
2019-04-22T15:57:54.940Z,20.50
2019-04-22T16:03:04.267Z,20.32
2019-04-22T16:08:08.864Z,20.38
2019-04-22T16:13:20.391Z,20.23
2019-04-22T16:18:22.472Z,20.11
2019-04-22T16:23:40.463Z,19.98
2019-04-22T16:28:47.377Z,19.96
2019-04-22T16:33:54.366Z,19.86
2019-04-22T16:39:02.746Z,19.78
2019-04-22T16:44:16.155Z,19.71
2019-04-22T16:49:25.566Z,19.60
2019-04-22T16:54:32.814Z,19.54
2019-04-22T16:59:40.354Z,19.38
2019-04-22T17:05:13.870Z,19.31
2019-04-22T17:10:19.658Z,19.38
2019-04-22T17:15:33.399Z,19.24
2019-04-22T17:20:38.700Z,19.14
2019-04-22T17:25:44.619Z,18.91
2019-04-22T17:30:50.245Z,18.86
2019-04-22T17:35:55.304Z,18.83
2019-04-22T17:41:11.904Z,18.69
2019-04-22T17:46:32.437Z,18.51
2019-04-22T17:52:13.875Z,18.45
2019-04-22T17:57:15.364Z,18.33
2019-04-22T18:02:23.910Z,18.26
2019-04-22T18:07:37.052Z,18.11
2019-04-22T18:12:43.807Z,18.00
2019-04-22T18:17:53.075Z,17.89
2019-04-22T18:22:49.376Z,17.79
2019-04-22T18:28:06.108Z,17.68
2019-04-22T18:33:13.232Z,17.62
2019-04-22T18:38:32.419Z,17.51
2019-04-22T18:43:28.848Z,17.49
2019-04-22T18:48:33.261Z,17.38
2019-04-22T18:53:54.117Z,17.27
2019-04-22T18:58:51.037Z,17.24
2019-04-22T19:03:54.181Z,17.09
2019-04-22T19:09:15.060Z,17.03
2019-04-22T19:14:35.610Z,17.02
2019-04-22T19:19:34.373Z,16.94
2019-04-22T19:24:28.929Z,16.87
2019-04-22T19:29:48.792Z,16.75
2019-04-22T19:34:47.773Z,16.68
2019-04-22T19:40:03.526Z,16.64
2019-04-22T19:45:04.071Z,16.59
2019-04-22T19:50:29.422Z,16.56
2019-04-22T19:55:21.868Z,16.49
2019-04-22T20:00:37.480Z,16.42
2019-04-22T20:06:08.892Z,16.44
2019-04-22T20:11:19.541Z,16.32
2019-04-22T20:16:08.610Z,16.19
2019-04-22T20:21:31.198Z,16.21
2019-04-22T20:26:23.531Z,16.08
2019-04-22T20:31:44.168Z,16.07
2019-04-22T20:36:56.966Z,16.05
2019-04-22T20:41:57.656Z,15.98
2019-04-22T20:47:00.288Z,16.03
2019-04-22T20:52:16.361Z,16.11
2019-04-22T20:57:15.412Z,16.11
2019-04-22T21:02:17.899Z,16.07
2019-04-22T21:07:26.666Z,16.06
2019-04-22T21:12:27.537Z,16.00
2019-04-22T21:17:46.022Z,16.00
2019-04-22T21:22:48.292Z,15.96
2019-04-22T21:28:05.046Z,15.84
2019-04-22T21:33:06.637Z,15.77
2019-04-22T21:38:24.339Z,15.75
2019-04-22T21:43:32.095Z,15.70
2019-04-22T21:48:36.684Z,15.69
2019-04-22T21:53:48.838Z,15.64
2019-04-22T21:59:15.642Z,15.61
2019-04-22T22:04:17.343Z,15.57
2019-04-22T22:09:31.753Z,15.53
2019-04-22T22:14:31.700Z,15.46
2019-04-22T22:19:44.414Z,15.40
2019-04-22T22:24:50.158Z,15.40
2019-04-22T22:30:06.598Z,15.36
2019-04-22T22:35:02.636Z,15.34
2019-04-22T22:39:57.976Z,15.25
2019-04-22T22:45:07.883Z,15.22
2019-04-22T22:50:26.232Z,15.19
2019-04-22T22:55:34.435Z,15.10
2019-04-22T23:00:36.956Z,15.10
2019-04-22T23:05:55.517Z,15.08
2019-04-22T23:11:00.781Z,15.06
2019-04-22T23:15:55.538Z,15.04
2019-04-22T23:20:49.620Z,14.98
2019-04-22T23:26:32.226Z,15.03
2019-04-22T23:31:36.806Z,14.91
2019-04-22T23:36:54.203Z,14.82
2019-04-22T23:42:10.963Z,14.82
2019-04-22T23:47:11.041Z,14.80
2019-04-22T23:52:28.490Z,14.73
2019-04-22T23:57:39.011Z,14.70
